Terminal Aerodrome Forecast
Issued by NWS Grand Junction, CO

Home | Current Version | Previous Version | Text Only | Print | Product List | Glossary On
Versions: 1 2 3 4 5 6 7 8 9 10 11 12 13 14 15 16 17
000
FTUS45 KGJT 211135
TAFGJT
TAF
KGJT 211135Z 2112/2212 28003KT P6SM VCSH SCT025 OVC050
     FM211600 31004KT P6SM FEW050 SCT100
     FM211900 33008KT P6SM FEW060 SCT200
     FM220200 06004KT P6SM SKC
     FM220600 11005KT P6SM SKC=

USA.gov is the U.S. government's official web portal to all federal, state and local government web resources and services.